Alberta, Minnesota
Current Conditions -  °F | °C
As of 7:25 AM on Tuesday 21 Oct 2014 (Local Time) from KMOX Reporting Station
Clear Clear  
Wind Chill: 34°   Ceiling: Unl
Heat Index: 41°   Visibility: 10mi
Dew Point: 37°   Wind: 13mph
Humidity: 87%   Direction: 120°ESE
Pressure: 30.08"   Gusts: NA
Location:  45.57°N, 96.05°W
Report Text: KMOX 211225Z AUTO 12011KT 10SM CLR 05/03 A3008 RMK AO2
Loading
Personal Weather Stations






























Interactive Weather Map
Tropical Storm Tracking
New forecast layout! Learn more

10-Day Weather Forecast

Advertisements
Track Severe Weather on mobile